createdAt,value
2022-08-30T00:03:49.770Z,4173.4
2022-08-30T00:09:25.097Z,4172.6
2022-08-30T00:14:59.989Z,4173.3
2022-08-30T00:20:34.876Z,4174.1
2022-08-30T00:26:10.036Z,4172.6
2022-08-30T00:31:45.872Z,4171.8
2022-08-30T00:37:20.586Z,4170.6
2022-08-30T00:43:20.752Z,4166.7
2022-08-30T00:48:53.448Z,4169.7
2022-08-30T00:54:37.012Z,4169.9
2022-08-30T01:00:11.864Z,4171.3
2022-08-30T01:05:46.827Z,4169.2
2022-08-30T01:11:21.664Z,4168.1
2022-08-30T01:16:57.598Z,4167.7
2022-08-30T01:22:35.549Z,4169.2
2022-08-30T01:28:10.429Z,4167.2
2022-08-30T01:33:46.678Z,4168.9
2022-08-30T01:39:21.328Z,4165.2
2022-08-30T01:44:56.193Z,4167.6
2022-08-30T01:50:31.263Z,4167.7
2022-08-30T01:56:05.897Z,4166.7
2022-08-30T02:01:41.966Z,4164.6
2022-08-30T02:07:18.034Z,4163.2
2022-08-30T02:13:13.751Z,4165.4
2022-08-30T02:18:48.795Z,4164.6
2022-08-30T02:24:23.749Z,4167.9
2022-08-30T02:29:59.634Z,4164.4
2022-08-30T02:35:34.379Z,4164.6
2022-08-30T02:41:09.097Z,4164.9
2022-08-30T02:46:43.942Z,4165.6
2022-08-30T02:52:28.316Z,4164
2022-08-30T02:58:03.227Z,4163.4
2022-08-30T03:03:38.166Z,4162.9
2022-08-30T03:09:13.134Z,4162.4
2022-08-30T03:14:48.069Z,4161.5
2022-08-30T03:20:23.523Z,4163.9
2022-08-30T03:25:58.318Z,4161.9
2022-08-30T03:31:54.850Z,4161.9
2022-08-30T03:37:29.851Z,4160.9
2022-08-30T03:43:06.456Z,4160.2
2022-08-30T03:48:42.145Z,4161
2022-08-30T03:54:19.439Z,4159.4
2022-08-30T03:59:54.318Z,4159.5
2022-08-30T04:05:32.114Z,4161.7
2022-08-30T04:11:09.887Z,4160
2022-08-30T04:17:20.664Z,4158.5
2022-08-30T04:22:55.533Z,4160.7
2022-08-30T04:28:30.361Z,4159
2022-08-30T04:34:05.433Z,4159
2022-08-30T04:39:40.336Z,4155.8
2022-08-30T04:45:15.312Z,4157.5
2022-08-30T04:50:50.384Z,4155.7
2022-08-30T04:56:26.002Z,4158
2022-08-30T05:02:02.309Z,4159.7
2022-08-30T05:07:38.985Z,4155.3
2022-08-30T05:13:14.271Z,4154.8
2022-08-30T05:18:49.138Z,4155.8
2022-08-30T05:24:23.976Z,4154.7
2022-08-30T05:30:00.190Z,4156
2022-08-30T05:35:35.048Z,4151.7
2022-08-30T05:41:12.270Z,4155
2022-08-30T05:46:47.695Z,4155.2
2022-08-30T05:52:22.732Z,4152
2022-08-30T05:57:58.152Z,4155.5
2022-08-30T06:03:32.978Z,4161.2
2022-08-30T06:09:07.810Z,4159.5
2022-08-30T06:14:44.474Z,4166.2
2022-08-30T06:20:19.647Z,4165.2
2022-08-30T06:25:54.373Z,4167.4
2022-08-30T06:31:30.158Z,4166.9
2022-08-30T06:37:05.395Z,4164.7
2022-08-30T06:42:40.438Z,4166.7
2022-08-30T06:48:15.376Z,4168.7
2022-08-30T06:53:50.103Z,4165.7
2022-08-30T06:59:24.923Z,4169.4
2022-08-30T07:04:59.768Z,4166.7
2022-08-30T07:10:34.992Z,4170.9
2022-08-30T07:16:11.662Z,4174.9
2022-08-30T07:21:46.776Z,4175.1
2022-08-30T07:27:21.535Z,4174.9
2022-08-30T07:32:56.836Z,4178.3
2022-08-30T07:38:31.767Z,4178.5
2022-08-30T07:44:07.041Z,4177.6
2022-08-30T07:49:41.910Z,4181.3
2022-08-30T07:55:17.139Z,4184.3
2022-08-30T08:00:52.355Z,4190.3
2022-08-30T08:06:35.921Z,4199.9
2022-08-30T08:12:10.928Z,4207.8
2022-08-30T08:17:45.547Z,4214.1
2022-08-30T08:23:20.556Z,4215.1
2022-08-30T08:28:55.455Z,4218.5
2022-08-30T08:34:30.324Z,4215.3
2022-08-30T08:40:06.146Z,4209.4
2022-08-30T08:45:41.611Z,4211.1
2022-08-30T08:51:16.452Z,4212.5
2022-08-30T08:56:51.309Z,4207.3
2022-08-30T09:02:26.100Z,4209.1
2022-08-30T09:08:01.258Z,4208.4
2022-08-30T09:13:37.378Z,4220.8
2022-08-30T09:19:12.191Z,4221.2
2022-08-30T09:24:47.130Z,4217.3
2022-08-30T09:30:22.279Z,4210.1
2022-08-30T09:35:57.247Z,4225
2022-08-30T09:41:33.958Z,4216
2022-08-30T09:47:09.931Z,4209.4
2022-08-30T09:52:56.445Z,4221.7
2022-08-30T09:58:31.370Z,4224.4
2022-08-30T10:04:06.415Z,4215.3
2022-08-30T10:09:41.326Z,4226.4
2022-08-30T10:15:16.903Z,4216.5
2022-08-30T10:20:51.939Z,4222.2
2022-08-30T10:26:32.625Z,4226.9
2022-08-30T10:32:07.508Z,4227.9
2022-08-30T10:37:43.995Z,4220
2022-08-30T10:43:19.994Z,4229.4
2022-08-30T10:48:54.738Z,4228.4
2022-08-30T10:54:30.008Z,4215.5
2022-08-30T11:00:07.321Z,4223.5
2022-08-30T11:05:43.094Z,4223.2
2022-08-30T11:11:18.653Z,4217
2022-08-30T11:16:53.636Z,4213.8
2022-08-30T11:22:28.502Z,4217.3
2022-08-30T11:28:03.344Z,4228.5
2022-08-30T11:33:39.128Z,4220.5
2022-08-30T11:39:14.319Z,4223.3
2022-08-30T11:44:50.270Z,4217
2022-08-30T11:50:27.580Z,4225
2022-08-30T11:56:04.573Z,4216.6
2022-08-30T12:01:59.498Z,4220.2
2022-08-30T12:07:39.130Z,4224.9
2022-08-30T12:13:20.272Z,4226.7
2022-08-30T12:18:57.437Z,4231.2
2022-08-30T12:24:37.626Z,4227.4
2022-08-30T12:30:18.558Z,4226.7
2022-08-30T12:35:55.211Z,4227.7
2022-08-30T12:41:30.899Z,4217.1
2022-08-30T12:47:07.320Z,4219.2
2022-08-30T12:52:46.840Z,4213.5
2022-08-30T12:58:23.402Z,4228.2
2022-08-30T13:04:02.995Z,4220.8
2022-08-30T13:09:37.925Z,4226.5
2022-08-30T13:15:13.755Z,4220.5
2022-08-30T13:20:48.746Z,4222
2022-08-30T13:26:27.160Z,4221.3
2022-08-30T13:32:03.550Z,4219
2022-08-30T13:37:52.871Z,4227.5
2022-08-30T13:44:11.576Z,4227.9
2022-08-30T13:49:48.640Z,4218.3
2022-08-30T13:55:24.398Z,4229.5
2022-08-30T14:01:00.217Z,4225.4
2022-08-30T14:07:16.936Z,4232.1
2022-08-30T14:13:13.950Z,4227.2
2022-08-30T14:18:51.609Z,4225
2022-08-30T14:24:27.504Z,4217.7
2022-08-30T14:30:02.728Z,4227.5
2022-08-30T14:35:39.869Z,4222.7
2022-08-30T14:41:14.714Z,4215.8
2022-08-30T14:46:56.886Z,4225.2
2022-08-30T14:52:46.055Z,4222.8
2022-08-30T14:58:21.391Z,4220
2022-08-30T15:04:00.981Z,4228.7
2022-08-30T15:09:39.748Z,4232.4
2022-08-30T15:15:14.995Z,4222.2
2022-08-30T15:20:50.199Z,4214.8
2022-08-30T15:26:25.079Z,4228.4
2022-08-30T15:32:02.678Z,4218.7
2022-08-30T15:37:38.616Z,4213.1
2022-08-30T15:43:31.250Z,4221.3
2022-08-30T15:49:07.814Z,4212.8
2022-08-30T15:54:55.391Z,4207.3
2022-08-30T16:00:53.944Z,4212.3
2022-08-30T16:06:43.879Z,4205.1
2022-08-30T16:12:33.721Z,4210.6
2022-08-30T16:18:24.851Z,4209.9
2022-08-30T16:24:17.523Z,4208.4
2022-08-30T16:30:01.590Z,4208.3
2022-08-30T16:35:49.656Z,4209.1
2022-08-30T16:41:37.413Z,4205.8
2022-08-30T16:47:16.103Z,4211.3
2022-08-30T16:52:54.054Z,4212.3
2022-08-30T16:58:30.359Z,4212.8
2022-08-30T17:04:06.215Z,4210.6
2022-08-30T17:09:41.685Z,4208.9
2022-08-30T17:15:16.770Z,4209.6
2022-08-30T17:20:53.068Z,4209.4
2022-08-30T17:26:29.035Z,4210.8
2022-08-30T17:32:06.549Z,4208.4
2022-08-30T17:37:41.943Z,4206.8
2022-08-30T17:43:18.573Z,4207.4
2022-08-30T17:49:02.382Z,4206.1
2022-08-30T17:54:37.158Z,4205.6
2022-08-30T18:00:21.700Z,4205.4
2022-08-30T18:05:57.254Z,4204.6
2022-08-30T18:11:33.245Z,4204.8
2022-08-30T18:17:09.529Z,4201.4
2022-08-30T18:22:44.486Z,4204.4
2022-08-30T18:28:21.115Z,4204.4
2022-08-30T18:34:00.561Z,4202.9
2022-08-30T18:39:35.904Z,4203.9
2022-08-30T18:45:18.826Z,4203.6
2022-08-30T18:50:53.809Z,4202.2
2022-08-30T18:56:34.984Z,4202.4
2022-08-30T19:02:13.407Z,4202.1
2022-08-30T19:07:48.661Z,4202.7
2022-08-30T19:13:25.250Z,4202.6
2022-08-30T19:19:01.107Z,4203.9
2022-08-30T19:24:37.857Z,4201.9
2022-08-30T19:30:30.665Z,4201.6
2022-08-30T19:36:05.823Z,4200.7
2022-08-30T19:41:41.644Z,4202.6
2022-08-30T19:47:16.766Z,4199.9
2022-08-30T19:52:56.127Z,4200.4
2022-08-30T19:58:30.983Z,4199.4
2022-08-30T20:04:05.817Z,4198.2
2022-08-30T20:09:41.650Z,4199.7
2022-08-30T20:15:17.795Z,4199.4
2022-08-30T20:20:52.541Z,4196.5
2022-08-30T20:26:35.386Z,4199.4
2022-08-30T20:32:11.455Z,4197.9
2022-08-30T20:37:46.413Z,4198.6
2022-08-30T20:43:22.158Z,4198.2
2022-08-30T20:48:57.012Z,4197.4
2022-08-30T20:54:31.945Z,4197.5
2022-08-30T21:00:10.306Z,4197.9
2022-08-30T21:05:45.087Z,4197.9
2022-08-30T21:11:20.386Z,4198.1
2022-08-30T21:16:56.870Z,4196
2022-08-30T21:22:31.934Z,4195.5
2022-08-30T21:28:06.746Z,4196.7
2022-08-30T21:33:41.487Z,4196.5
2022-08-30T21:39:16.554Z,4196.2
2022-08-30T21:44:51.366Z,4197
2022-08-30T21:50:26.275Z,4193.5
2022-08-30T21:56:03.140Z,4193.9
2022-08-30T22:01:39.740Z,4193.7
2022-08-30T22:07:14.913Z,4194.4
2022-08-30T22:12:51.251Z,4194.2
2022-08-30T22:18:26.007Z,4191
2022-08-30T22:24:06.853Z,4193
2022-08-30T22:29:42.008Z,4192
2022-08-30T22:35:16.805Z,4192.7
2022-08-30T22:40:55.276Z,4192.4
2022-08-30T22:46:35.913Z,4190.7
2022-08-30T22:52:10.741Z,4190.2
2022-08-30T22:57:45.984Z,4188.2
2022-08-30T23:03:20.917Z,4192.2
2022-08-30T23:08:55.762Z,4191.2
2022-08-30T23:14:31.570Z,4194
2022-08-30T23:20:06.384Z,4188.5
2022-08-30T23:25:52.320Z,4189.2
2022-08-30T23:31:28.202Z,4191.4
2022-08-30T23:37:04.040Z,4190.5
2022-08-30T23:42:38.991Z,4187
2022-08-30T23:48:13.881Z,4188.8
2022-08-30T23:53:49.903Z,4188.2
2022-08-30T23:59:24.719Z,4187.5
